createdAt,value
2022-09-20T00:01:26.117Z,2.47
2022-09-20T00:03:56.064Z,2.10
2022-09-20T00:06:26.383Z,2.35
2022-09-20T00:08:57.612Z,2.22
2022-09-20T00:11:30.054Z,2.00
2022-09-20T00:14:00.169Z,2.25
2022-09-20T00:16:31.669Z,2.10
2022-09-20T00:19:03.762Z,2.28
2022-09-20T00:21:33.493Z,2.72
2022-09-20T00:24:01.742Z,2.65
2022-09-20T00:26:30.180Z,3.08
2022-09-20T00:29:00.245Z,3.20
2022-09-20T00:31:29.552Z,3.60
2022-09-20T00:34:17.816Z,4.20
2022-09-20T00:36:46.012Z,4.25
2022-09-20T00:39:15.811Z,4.10
2022-09-20T00:41:44.506Z,4.22
2022-09-20T00:44:51.039Z,4.45
2022-09-20T00:47:27.467Z,4.13
2022-09-20T00:50:01.033Z,4.70
2022-09-20T00:52:30.518Z,3.50
2022-09-20T00:54:59.452Z,4.00
2022-09-20T00:57:27.756Z,4.35
2022-09-20T00:59:55.986Z,3.83
2022-09-20T01:02:28.882Z,3.38
2022-09-20T01:04:57.873Z,3.50
2022-09-20T01:07:27.183Z,3.20
2022-09-20T01:09:55.187Z,3.70
2022-09-20T01:16:18.627Z,3.05
2022-09-20T01:18:50.297Z,3.50
2022-09-20T01:21:21.198Z,2.85
2022-09-20T01:23:58.474Z,3.13
2022-09-20T01:26:54.756Z,3.28
2022-09-20T01:29:54.101Z,2.80
2022-09-20T01:32:29.853Z,3.28
2022-09-20T01:35:02.427Z,2.80
2022-09-20T01:37:43.295Z,2.78
2022-09-20T01:40:21.942Z,2.80
2022-09-20T01:42:59.746Z,2.50
2022-09-20T01:45:33.204Z,2.58
2022-09-20T01:48:13.489Z,2.50
2022-09-20T01:51:00.421Z,2.80
2022-09-20T01:53:53.530Z,2.60
2022-09-20T01:57:00.383Z,2.25
2022-09-20T01:59:51.117Z,2.50
2022-09-20T02:02:49.738Z,2.88
2022-09-20T02:05:44.488Z,2.55
2022-09-20T02:08:39.977Z,2.53
2022-09-20T02:11:14.810Z,2.53
2022-09-20T02:14:06.381Z,2.47
2022-09-20T02:16:46.297Z,2.83
2022-09-20T02:19:45.408Z,2.42
2022-09-20T02:22:37.844Z,2.30
2022-09-20T02:25:24.450Z,2.17
2022-09-20T02:28:07.400Z,1.83
2022-09-20T02:30:45.957Z,2.10
2022-09-20T02:33:40.244Z,2.30
2022-09-20T02:36:27.232Z,2.20
2022-09-20T02:39:03.911Z,2.33
2022-09-20T02:42:02.546Z,1.80
2022-09-20T02:44:44.669Z,2.10
2022-09-20T02:47:21.968Z,2.05
2022-09-20T02:50:07.508Z,2.05
2022-09-20T02:52:47.175Z,2.08
2022-09-20T02:55:19.166Z,1.85
2022-09-20T03:00:23.767Z,1.90
2022-09-20T03:03:07.417Z,2.13
2022-09-20T03:05:47.453Z,2.40
2022-09-20T03:08:34.449Z,1.85
2022-09-20T03:11:14.136Z,2.08
2022-09-20T03:14:00.841Z,1.75
2022-09-20T03:16:36.066Z,2.20
2022-09-20T03:19:21.671Z,1.90
2022-09-20T03:22:06.798Z,2.03
2022-09-20T03:24:44.926Z,2.00
2022-09-20T03:27:21.091Z,1.88
2022-09-20T03:30:03.940Z,2.58
2022-09-20T03:32:45.886Z,1.42
2022-09-20T03:35:30.661Z,1.60
2022-09-20T03:38:16.093Z,1.73
2022-09-20T03:41:19.045Z,1.42
2022-09-20T03:43:57.968Z,1.25
2022-09-20T03:46:28.395Z,1.80
2022-09-20T03:49:48.058Z,1.70
2022-09-20T03:52:36.744Z,1.45
2022-09-20T03:55:27.748Z,1.60
2022-09-20T03:58:11.893Z,1.80
2022-09-20T04:00:57.677Z,1.80
2022-09-20T04:03:35.532Z,1.40
2022-09-20T04:06:24.086Z,1.88
2022-09-20T04:09:07.288Z,1.58
2022-09-20T04:11:44.245Z,1.55
2022-09-20T04:14:21.919Z,1.45
2022-09-20T04:16:56.771Z,1.35
2022-09-20T04:19:32.893Z,1.20
2022-09-20T04:22:03.217Z,1.33
2022-09-20T04:24:41.912Z,1.60
2022-09-20T04:27:18.776Z,1.50
2022-09-20T04:29:54.685Z,1.63
2022-09-20T04:32:30.008Z,1.10
2022-09-20T04:35:21.730Z,1.73
2022-09-20T04:37:52.822Z,1.57
2022-09-20T04:40:33.517Z,1.20
2022-09-20T04:43:48.051Z,1.15
2022-09-20T04:47:02.847Z,1.45
2022-09-20T04:50:18.093Z,1.35
2022-09-20T04:53:09.330Z,1.13
2022-09-20T04:55:57.502Z,1.27
2022-09-20T04:58:49.282Z,1.10
2022-09-20T05:01:50.500Z,1.10
2022-09-20T05:05:09.896Z,1.15
2022-09-20T05:08:10.908Z,1.20
2022-09-20T05:11:09.171Z,1.02
2022-09-20T05:13:56.339Z,1.40
2022-09-20T05:16:33.013Z,1.20
2022-09-20T05:19:27.656Z,1.27
2022-09-20T05:22:25.117Z,1.30
2022-09-20T05:25:08.796Z,1.17
2022-09-20T05:27:44.810Z,1.20
2022-09-20T05:30:34.597Z,1.58
2022-09-20T05:33:15.111Z,1.23
2022-09-20T05:35:53.607Z,1.63
2022-09-20T05:38:35.493Z,1.20
2022-09-20T05:41:14.034Z,1.42
2022-09-20T05:43:53.794Z,1.13
2022-09-20T05:46:34.824Z,1.42
2022-09-20T05:49:13.474Z,1.30
2022-09-20T05:51:55.941Z,1.20
2022-09-20T05:54:43.773Z,1.27
2022-09-20T05:57:20.460Z,1.27
2022-09-20T06:00:00.561Z,1.27
2022-09-20T06:02:44.634Z,1.35
2022-09-20T06:05:16.893Z,0.98
2022-09-20T06:11:01.246Z,1.23
2022-09-20T06:14:03.630Z,1.40
2022-09-20T06:16:43.177Z,1.33
2022-09-20T06:19:20.342Z,1.20
2022-09-20T06:21:53.363Z,9.60
2022-09-20T06:24:37.037Z,4.13
2022-09-20T06:27:14.311Z,3.35
2022-09-20T06:29:49.085Z,5.18
2022-09-20T06:32:18.625Z,2.70
2022-09-20T06:34:47.660Z,3.80
2022-09-20T06:37:49.203Z,3.58
2022-09-20T06:40:52.079Z,4.55
2022-09-20T06:43:21.438Z,4.20
2022-09-20T06:45:49.576Z,4.13
2022-09-20T06:48:19.290Z,4.35
2022-09-20T06:50:47.260Z,4.13
2022-09-20T06:53:18.746Z,4.45
2022-09-20T06:55:47.673Z,3.72
2022-09-20T06:58:15.557Z,3.80
2022-09-20T07:00:44.980Z,3.63
2022-09-20T07:03:15.087Z,3.42
2022-09-20T07:05:43.046Z,3.63
2022-09-20T07:08:10.918Z,3.28
2022-09-20T07:10:38.852Z,3.97
2022-09-20T07:13:07.147Z,3.45
2022-09-20T07:15:36.161Z,3.67
2022-09-20T07:18:05.448Z,3.28
2022-09-20T07:20:36.176Z,3.13
2022-09-20T07:23:04.166Z,3.15
2022-09-20T07:25:32.916Z,3.40
2022-09-20T07:28:00.931Z,2.80
2022-09-20T07:30:28.928Z,3.10
2022-09-20T07:32:56.825Z,2.95
2022-09-20T07:35:26.114Z,3.00
2022-09-20T07:37:58.501Z,3.08
2022-09-20T07:40:27.370Z,2.78
2022-09-20T07:42:57.527Z,2.90
2022-09-20T07:45:25.651Z,3.08
2022-09-20T07:47:54.618Z,2.83
2022-09-20T07:50:22.646Z,2.60
2022-09-20T07:52:52.174Z,2.85
2022-09-20T07:55:20.127Z,2.55
2022-09-20T07:57:48.304Z,2.30
2022-09-20T08:00:16.463Z,3.33
2022-09-20T08:02:45.485Z,2.63
2022-09-20T08:05:13.510Z,2.50
2022-09-20T08:07:41.437Z,2.20
2022-09-20T08:10:11.241Z,1.70
2022-09-20T08:15:27.105Z,1.90
2022-09-20T08:17:55.098Z,2.15
2022-09-20T08:20:23.227Z,2.13
2022-09-20T08:23:19.371Z,1.75
2022-09-20T08:25:44.649Z,1.83
2022-09-20T08:28:12.572Z,2.03
2022-09-20T08:30:40.456Z,2.15
2022-09-20T08:33:08.310Z,1.98
2022-09-20T08:35:38.393Z,2.35
2022-09-20T08:41:03.348Z,1.95
2022-09-20T08:43:37.121Z,1.90
2022-09-20T08:46:08.292Z,2.00
2022-09-20T08:48:36.361Z,1.73
2022-09-20T08:51:06.221Z,1.83
2022-09-20T08:53:35.132Z,2.35
2022-09-20T08:56:04.792Z,1.80
2022-09-20T08:58:33.084Z,1.80
2022-09-20T09:01:01.481Z,1.80
2022-09-20T09:03:29.580Z,1.80
2022-09-20T09:05:58.177Z,2.40
2022-09-20T09:08:29.389Z,1.90
2022-09-20T09:11:00.125Z,1.80
2022-09-20T09:13:34.525Z,1.77
2022-09-20T09:16:07.400Z,1.80
2022-09-20T09:18:39.025Z,1.60
2022-09-20T09:21:10.497Z,1.55
2022-09-20T09:23:42.456Z,1.73
2022-09-20T09:26:19.640Z,1.42
2022-09-20T09:29:08.385Z,1.92
2022-09-20T09:31:38.484Z,1.45
2022-09-20T09:34:07.030Z,1.83
2022-09-20T09:36:45.247Z,1.80
2022-09-20T09:39:22.738Z,1.90
2022-09-20T09:41:51.144Z,1.60
2022-09-20T09:44:27.637Z,2.65
2022-09-20T09:46:57.031Z,1.73
2022-09-20T09:49:26.986Z,1.50
2022-09-20T09:52:07.725Z,1.52
2022-09-20T09:54:38.256Z,1.50
2022-09-20T09:57:24.751Z,2.03
2022-09-20T10:00:13.475Z,1.75
2022-09-20T10:03:19.084Z,1.50
2022-09-20T10:06:05.007Z,1.33
2022-09-20T10:08:43.412Z,1.40
2022-09-20T10:11:25.947Z,1.50
2022-09-20T10:14:05.449Z,1.67
2022-09-20T10:16:53.176Z,1.83
2022-09-20T10:19:34.325Z,1.42
2022-09-20T10:22:09.698Z,1.48
2022-09-20T10:24:51.000Z,1.58
2022-09-20T10:27:33.189Z,1.52
2022-09-20T10:30:06.182Z,1.70
2022-09-20T10:32:52.195Z,1.42
2022-09-20T10:35:30.422Z,1.50
2022-09-20T10:38:23.568Z,1.65
2022-09-20T10:41:23.715Z,1.33
2022-09-20T10:44:05.893Z,1.17
2022-09-20T10:46:53.029Z,1.38
2022-09-20T10:49:36.333Z,1.65
2022-09-20T10:52:36.821Z,1.30
2022-09-20T10:55:20.475Z,1.45
2022-09-20T10:58:08.647Z,1.40
2022-09-20T11:00:48.648Z,1.27
2022-09-20T11:03:31.244Z,1.42
2022-09-20T11:06:14.333Z,1.27
2022-09-20T11:08:44.928Z,1.33
2022-09-20T11:11:20.946Z,1.20
2022-09-20T11:13:59.016Z,1.45
2022-09-20T11:16:34.142Z,1.23
2022-09-20T11:19:07.502Z,1.48
2022-09-20T11:21:42.948Z,1.33
2022-09-20T11:24:17.762Z,1.55
2022-09-20T11:26:52.465Z,1.30
2022-09-20T11:29:26.051Z,1.33
2022-09-20T11:31:56.290Z,1.25
2022-09-20T11:34:29.776Z,1.10
2022-09-20T11:37:03.239Z,1.65
2022-09-20T11:39:38.450Z,1.60
2022-09-20T11:42:08.260Z,1.13
2022-09-20T11:44:41.212Z,1.30
2022-09-20T11:47:31.293Z,1.20
2022-09-20T11:50:38.397Z,1.80
2022-09-20T11:53:20.832Z,1.65
2022-09-20T11:58:22.455Z,1.70
2022-09-20T12:00:54.258Z,2.15
2022-09-20T12:03:29.024Z,2.13
2022-09-20T12:06:00.072Z,1.70
2022-09-20T12:08:33.535Z,1.50
2022-09-20T12:11:05.363Z,1.10
2022-09-20T12:13:37.611Z,1.52
2022-09-20T12:19:01.248Z,1.38
2022-09-20T12:21:29.406Z,1.50
2022-09-20T12:24:20.918Z,1.65
2022-09-20T12:26:51.259Z,1.80
2022-09-20T12:29:54.520Z,1.75
2022-09-20T12:32:46.157Z,2.00
2022-09-20T12:36:00.134Z,1.92
2022-09-20T12:38:33.181Z,1.45
2022-09-20T12:41:09.479Z,1.80
2022-09-20T12:43:48.381Z,2.30
2022-09-20T12:46:27.932Z,2.05
2022-09-20T12:49:40.267Z,1.95
2022-09-20T12:52:50.373Z,2.10
2022-09-20T12:55:49.793Z,1.90
2022-09-20T12:58:35.945Z,2.08
2022-09-20T13:01:39.690Z,1.75
2022-09-20T13:04:44.730Z,1.40
2022-09-20T13:07:44.778Z,1.60
2022-09-20T13:10:35.944Z,1.88
2022-09-20T13:13:23.153Z,1.42
2022-09-20T13:15:54.907Z,1.52
2022-09-20T13:18:26.419Z,1.85
2022-09-20T13:20:55.902Z,1.85
2022-09-20T13:23:28.251Z,2.22
2022-09-20T13:25:58.149Z,1.80
2022-09-20T13:28:33.500Z,2.00
2022-09-20T13:31:36.098Z,1.83
2022-09-20T13:34:21.767Z,1.30
2022-09-20T13:36:55.973Z,1.92
2022-09-20T13:39:37.390Z,2.00
2022-09-20T13:42:14.807Z,1.85
2022-09-20T13:44:45.469Z,1.75
2022-09-20T13:47:25.462Z,2.03
2022-09-20T13:49:53.703Z,1.65
2022-09-20T13:52:24.695Z,1.67
2022-09-20T13:54:52.692Z,1.55
2022-09-20T13:57:24.259Z,1.60
2022-09-20T13:59:54.136Z,1.60
2022-09-20T14:02:27.423Z,1.55
2022-09-20T14:04:57.759Z,1.63
2022-09-20T14:07:28.076Z,1.92
2022-09-20T14:09:58.933Z,1.40
2022-09-20T14:12:28.571Z,1.90
2022-09-20T14:14:57.026Z,1.45
2022-09-20T14:17:27.168Z,1.70
2022-09-20T14:19:57.612Z,1.52
2022-09-20T14:22:28.285Z,1.92
2022-09-20T14:25:01.372Z,1.30
2022-09-20T14:27:31.290Z,1.95
2022-09-20T14:29:59.762Z,1.25
2022-09-20T14:32:38.212Z,1.70
2022-09-20T14:35:13.572Z,1.38
2022-09-20T14:37:46.203Z,1.63
2022-09-20T14:40:25.614Z,1.40
2022-09-20T14:42:57.532Z,1.65
2022-09-20T14:45:29.841Z,1.63
2022-09-20T14:48:10.111Z,1.70
2022-09-20T14:50:40.998Z,1.33
2022-09-20T14:53:27.734Z,1.17
2022-09-20T14:56:01.574Z,1.50
2022-09-20T14:58:31.113Z,1.23
2022-09-20T15:01:03.054Z,1.40
2022-09-20T15:03:34.427Z,1.15
2022-09-20T15:06:02.387Z,1.23
2022-09-20T15:08:30.742Z,1.23
2022-09-20T15:11:00.378Z,1.65
2022-09-20T15:13:28.390Z,1.60
2022-09-20T15:15:56.777Z,1.58
2022-09-20T15:18:27.363Z,1.55
2022-09-20T15:20:59.914Z,1.42
2022-09-20T15:23:27.930Z,1.95
2022-09-20T15:25:56.973Z,2.20
2022-09-20T15:28:26.742Z,2.25
2022-09-20T15:30:55.067Z,2.20
2022-09-20T15:33:23.311Z,1.95
2022-09-20T15:35:51.338Z,2.30
2022-09-20T15:38:22.729Z,2.05
2022-09-20T15:40:50.834Z,2.58
2022-09-20T15:43:24.201Z,2.28
2022-09-20T15:45:53.993Z,2.10
2022-09-20T15:48:24.014Z,2.30
2022-09-20T15:51:02.263Z,1.75
2022-09-20T15:53:33.620Z,2.20
2022-09-20T15:56:02.514Z,1.90
2022-09-20T15:58:35.916Z,2.50
2022-09-20T16:01:06.277Z,2.03
2022-09-20T16:03:34.930Z,2.08
2022-09-20T16:06:04.895Z,1.90
2022-09-20T16:08:35.153Z,2.08
2022-09-20T16:11:03.140Z,1.83
2022-09-20T16:13:31.370Z,1.80
2022-09-20T16:16:01.597Z,1.95
2022-09-20T16:18:47.928Z,1.80
2022-09-20T16:21:18.574Z,1.92
2022-09-20T16:23:50.876Z,1.80
2022-09-20T16:26:23.332Z,1.70
2022-09-20T16:28:51.634Z,1.50
2022-09-20T16:31:34.826Z,1.80
2022-09-20T16:34:04.951Z,1.85
2022-09-20T16:36:33.352Z,1.92
2022-09-20T16:39:03.339Z,2.10
2022-09-20T16:41:32.420Z,1.70
2022-09-20T16:44:00.467Z,1.92
2022-09-20T16:46:28.610Z,1.95
2022-09-20T16:49:00.250Z,2.10
2022-09-20T16:51:33.310Z,2.15
2022-09-20T16:54:05.148Z,2.50
2022-09-20T16:56:34.881Z,1.90
2022-09-20T16:59:03.889Z,2.10
2022-09-20T17:01:32.746Z,1.95
2022-09-20T17:04:02.989Z,2.33
2022-09-20T17:06:31.231Z,1.75
2022-09-20T17:09:05.609Z,2.20
2022-09-20T17:11:35.906Z,2.30
2022-09-20T17:14:04.905Z,2.13
2022-09-20T17:16:35.043Z,1.90
2022-09-20T17:19:07.370Z,1.80
2022-09-20T17:21:37.226Z,2.17
2022-09-20T17:24:08.880Z,1.80
2022-09-20T17:26:38.775Z,1.83
2022-09-20T17:29:09.949Z,2.40
2022-09-20T17:31:41.623Z,2.00
2022-09-20T17:34:11.671Z,1.70
2022-09-20T17:36:41.208Z,2.25
2022-09-20T17:39:12.688Z,1.52
2022-09-20T17:41:41.945Z,2.25
2022-09-20T17:44:11.837Z,1.70
2022-09-20T17:46:41.509Z,2.00
2022-09-20T17:49:11.279Z,1.88
2022-09-20T17:51:41.140Z,2.20
2022-09-20T17:54:13.757Z,1.90
2022-09-20T17:56:43.555Z,1.92
2022-09-20T17:59:13.037Z,1.60
2022-09-20T18:01:41.835Z,2.10
2022-09-20T18:04:10.827Z,1.95
2022-09-20T18:06:42.193Z,1.90
2022-09-20T18:09:13.166Z,1.98
2022-09-20T18:11:44.150Z,1.92
2022-09-20T18:14:12.978Z,1.75
2022-09-20T18:16:40.987Z,1.63
2022-09-20T18:19:09.926Z,1.88
2022-09-20T18:21:39.801Z,1.98
2022-09-20T18:24:09.514Z,1.70
2022-09-20T18:26:39.728Z,1.98
2022-09-20T18:29:09.555Z,2.00
2022-09-20T18:31:39.065Z,1.85
2022-09-20T18:34:09.185Z,1.90
2022-09-20T18:36:39.444Z,1.92
2022-09-20T18:39:08.411Z,1.60
2022-09-20T18:41:40.933Z,1.70
2022-09-20T18:44:09.075Z,1.67
2022-09-20T18:46:38.900Z,2.08
2022-09-20T18:49:09.366Z,2.35
2022-09-20T18:51:39.897Z,2.15
2022-09-20T18:54:10.219Z,2.00
2022-09-20T18:56:41.779Z,1.92
2022-09-20T18:59:15.741Z,2.00
2022-09-20T19:02:13.653Z,1.98
2022-09-20T19:05:08.470Z,2.40
2022-09-20T19:07:46.375Z,2.40
2022-09-20T19:10:23.722Z,2.42
2022-09-20T19:13:00.291Z,1.90
2022-09-20T19:15:55.144Z,1.90
2022-09-20T19:19:01.066Z,2.00
2022-09-20T19:21:37.282Z,2.00
2022-09-20T19:24:16.845Z,2.17
2022-09-20T19:26:45.658Z,2.05
2022-09-20T19:29:20.094Z,1.98
2022-09-20T19:31:49.738Z,2.20
2022-09-20T19:34:21.530Z,2.20
2022-09-20T19:37:02.038Z,1.80
2022-09-20T19:39:40.109Z,1.83
2022-09-20T19:42:20.029Z,2.20
2022-09-20T19:44:59.712Z,2.38
2022-09-20T19:47:36.744Z,2.28
2022-09-20T19:50:15.875Z,1.65
2022-09-20T19:52:44.735Z,2.10
2022-09-20T19:55:14.337Z,2.13
2022-09-20T19:57:46.930Z,1.77
2022-09-20T20:00:19.442Z,1.88
2022-09-20T20:02:48.629Z,2.22
2022-09-20T20:05:18.829Z,1.85
2022-09-20T20:07:53.563Z,1.85
2022-09-20T20:10:28.939Z,2.05
2022-09-20T20:13:27.662Z,2.13
2022-09-20T20:16:03.774Z,3.20
2022-09-20T20:18:41.346Z,5.80
2022-09-20T20:21:18.397Z,11.25
2022-09-20T20:24:09.367Z,11.82
2022-09-20T20:26:37.312Z,9.82
2022-09-20T20:29:05.754Z,9.52
2022-09-20T20:31:35.882Z,8.95
2022-09-20T20:34:03.874Z,10.32
2022-09-20T20:36:31.941Z,9.25
2022-09-20T20:38:59.974Z,10.02
2022-09-20T20:41:27.977Z,9.55
2022-09-20T20:43:57.185Z,9.65
2022-09-20T20:46:26.087Z,9.30
2022-09-20T20:48:55.539Z,9.20
2022-09-20T20:51:24.283Z,8.45
2022-09-20T20:53:55.098Z,8.63
2022-09-20T20:56:25.710Z,8.23
2022-09-20T20:58:54.220Z,7.60
2022-09-20T21:01:23.872Z,7.85
2022-09-20T21:03:53.551Z,7.75
2022-09-20T21:06:25.170Z,8.18
2022-09-20T21:08:53.461Z,7.30
2022-09-20T21:11:23.375Z,8.05
2022-09-20T21:13:51.585Z,7.38
2022-09-20T21:16:21.555Z,7.82
2022-09-20T21:18:50.808Z,7.35
2022-09-20T21:21:20.373Z,7.05
2022-09-20T21:23:51.298Z,6.70
2022-09-20T21:26:20.685Z,7.10
2022-09-20T21:28:52.091Z,6.57
2022-09-20T21:31:21.948Z,7.32
2022-09-20T21:33:50.111Z,6.22
2022-09-20T21:36:20.471Z,6.55
2022-09-20T21:38:50.084Z,6.32
2022-09-20T21:41:20.115Z,6.05
2022-09-20T21:43:48.927Z,5.60
2022-09-20T21:46:20.295Z,5.97
2022-09-20T21:48:50.135Z,6.70
2022-09-20T21:51:20.417Z,6.03
2022-09-20T21:53:52.742Z,5.30
2022-09-20T21:56:21.144Z,5.25
2022-09-20T21:58:49.076Z,5.30
2022-09-20T22:01:21.487Z,5.43
2022-09-20T22:03:51.812Z,5.30
2022-09-20T22:06:23.408Z,5.63
2022-09-20T22:08:54.260Z,5.35
2022-09-20T22:11:23.092Z,5.40
2022-09-20T22:13:52.784Z,4.85
2022-09-20T22:16:22.671Z,4.57
2022-09-20T22:18:51.382Z,4.70
2022-09-20T22:21:24.605Z,5.15
2022-09-20T22:23:57.655Z,4.90
2022-09-20T22:26:27.792Z,4.25
2022-09-20T22:28:56.304Z,4.28
2022-09-20T22:31:26.661Z,4.82
2022-09-20T22:33:57.131Z,4.63
2022-09-20T22:36:27.862Z,4.30
2022-09-20T22:38:57.831Z,4.22
2022-09-20T22:41:27.749Z,4.22
2022-09-20T22:43:56.650Z,4.53
2022-09-20T22:46:26.509Z,4.03
2022-09-20T22:48:55.166Z,4.28
2022-09-20T22:51:25.599Z,4.13
2022-09-20T22:53:54.564Z,4.15
2022-09-20T22:56:25.831Z,4.00
2022-09-20T22:58:56.618Z,4.00
2022-09-20T23:01:26.596Z,4.90
2022-09-20T23:03:57.287Z,3.47
2022-09-20T23:06:28.163Z,3.88
2022-09-20T23:08:59.150Z,3.25
2022-09-20T23:11:29.381Z,3.83
2022-09-20T23:14:00.640Z,3.55
2022-09-20T23:16:30.991Z,4.13
2022-09-20T23:19:01.225Z,3.13
2022-09-20T23:21:30.464Z,3.35
2022-09-20T23:24:00.063Z,3.20
2022-09-20T23:26:31.607Z,3.50
2022-09-20T23:29:01.441Z,3.30
2022-09-20T23:31:35.247Z,3.00
2022-09-20T23:34:06.080Z,3.40
2022-09-20T23:36:36.000Z,3.08
2022-09-20T23:39:05.590Z,3.00
2022-09-20T23:41:36.753Z,3.47
2022-09-20T23:44:06.683Z,3.53
2022-09-20T23:46:35.627Z,3.30
2022-09-20T23:49:04.471Z,3.00
2022-09-20T23:51:34.181Z,3.00
2022-09-20T23:54:02.915Z,3.20
2022-09-20T23:56:31.434Z,2.97
2022-09-20T23:59:01.117Z,2.88
